sensor_id;sensor_type;location;lat;lon;timestamp;P1;durP1;ratioP1;P2;durP2;ratioP2
59984;SDS011;45843;47.532;18.660;2022-10-28T00:01:05;0.10;;;0.10;;
59984;SDS011;45843;47.532;18.660;2022-10-28T00:03:32;0.10;;;0.10;;
59984;SDS011;45843;47.532;18.660;2022-10-28T00:06:06;0.10;;;0.10;;
59984;SDS011;45843;47.532;18.660;2022-10-28T00:08:33;0.00;;;0.00;;
59984;SDS011;45843;47.532;18.660;2022-10-28T00:13:29;0.10;;;0.10;;
59984;SDS011;45843;47.532;18.660;2022-10-28T00:16:01;0.10;;;0.10;;
59984;SDS011;45843;47.532;18.660;2022-10-28T00:18:28;0.10;;;0.10;;
59984;SDS011;45843;47.532;18.660;2022-10-28T00:20:58;0.00;;;0.00;;
59984;SDS011;45843;47.532;18.660;2022-10-28T00:23:25;0.10;;;0.10;;
59984;SDS011;45843;47.532;18.660;2022-10-28T00:25:51;0.00;;;0.00;;
59984;SDS011;45843;47.532;18.660;2022-10-28T00:28:17;0.10;;;0.10;;
59984;SDS011;45843;47.532;18.660;2022-10-28T00:30:44;0.10;;;0.10;;
59984;SDS011;45843;47.532;18.660;2022-10-28T00:33:10;0.03;;;0.03;;
59984;SDS011;45843;47.532;18.660;2022-10-28T00:35:36;0.00;;;0.00;;
59984;SDS011;45843;47.532;18.660;2022-10-28T00:38:03;0.00;;;0.00;;
59984;SDS011;45843;47.532;18.660;2022-10-28T00:40:32;0.00;;;0.00;;
59984;SDS011;45843;47.532;18.660;2022-10-28T00:42:59;0.05;;;0.05;;
59984;SDS011;45843;47.532;18.660;2022-10-28T00:45:25;0.00;;;0.00;;
59984;SDS011;45843;47.532;18.660;2022-10-28T00:47:55;0.10;;;0.10;;
59984;SDS011;45843;47.532;18.660;2022-10-28T00:53:20;0.00;;;0.00;;
59984;SDS011;45843;47.532;18.660;2022-10-28T00:55:48;0.00;;;0.00;;
59984;SDS011;45843;47.532;18.660;2022-10-28T00:58:15;0.00;;;0.00;;
59984;SDS011;45843;47.532;18.660;2022-10-28T01:00:42;0.00;;;0.00;;
59984;SDS011;45843;47.532;18.660;2022-10-28T01:03:09;0.10;;;0.10;;
59984;SDS011;45843;47.532;18.660;2022-10-28T01:05:36;0.00;;;0.00;;
59984;SDS011;45843;47.532;18.660;2022-10-28T01:08:04;0.00;;;0.00;;
59984;SDS011;45843;47.532;18.660;2022-10-28T01:10:34;0.00;;;0.00;;
59984;SDS011;45843;47.532;18.660;2022-10-28T01:13:42;0.00;;;0.00;;
59984;SDS011;45843;47.532;18.660;2022-10-28T01:16:05;0.10;;;0.10;;
59984;SDS011;45843;47.532;18.660;2022-10-28T01:26:22;0.10;;;0.10;;
59984;SDS011;45843;47.532;18.660;2022-10-28T01:31:28;0.10;;;0.10;;
59984;SDS011;45843;47.532;18.660;2022-10-28T01:36:32;0.00;;;0.00;;
59984;SDS011;45843;47.532;18.660;2022-10-28T01:39:08;0.20;;;0.20;;
59984;SDS011;45843;47.532;18.660;2022-10-28T01:41:51;0.15;;;0.15;;
59984;SDS011;45843;47.532;18.660;2022-10-28T01:49:18;0.00;;;0.00;;
59984;SDS011;45843;47.532;18.660;2022-10-28T01:51:47;0.00;;;0.00;;
59984;SDS011;45843;47.532;18.660;2022-10-28T01:54:16;0.00;;;0.00;;
59984;SDS011;45843;47.532;18.660;2022-10-28T01:56:44;0.10;;;0.10;;
59984;SDS011;45843;47.532;18.660;2022-10-28T01:59:12;0.13;;;0.13;;
59984;SDS011;45843;47.532;18.660;2022-10-28T02:01:39;0.10;;;0.10;;
59984;SDS011;45843;47.532;18.660;2022-10-28T02:04:06;0.13;;;0.13;;
59984;SDS011;45843;47.532;18.660;2022-10-28T02:06:32;0.10;;;0.10;;
59984;SDS011;45843;47.532;18.660;2022-10-28T02:11:50;0.10;;;0.10;;
59984;SDS011;45843;47.532;18.660;2022-10-28T02:22:18;0.22;;;0.22;;
59984;SDS011;45843;47.532;18.660;2022-10-28T02:27:17;0.10;;;0.10;;
59984;SDS011;45843;47.532;18.660;2022-10-28T02:29:52;0.00;;;0.00;;
59984;SDS011;45843;47.532;18.660;2022-10-28T02:32:20;0.32;;;0.25;;
59984;SDS011;45843;47.532;18.660;2022-10-28T02:34:49;0.10;;;0.10;;
59984;SDS011;45843;47.532;18.660;2022-10-28T02:37:20;0.00;;;0.00;;
59984;SDS011;45843;47.532;18.660;2022-10-28T02:39:49;0.20;;;0.20;;
59984;SDS011;45843;47.532;18.660;2022-10-28T02:42:39;0.25;;;0.20;;
59984;SDS011;45843;47.532;18.660;2022-10-28T02:45:05;0.10;;;0.10;;
59984;SDS011;45843;47.532;18.660;2022-10-28T02:47:33;0.25;;;0.25;;
59984;SDS011;45843;47.532;18.660;2022-10-28T02:50:02;0.22;;;0.22;;
59984;SDS011;45843;47.532;18.660;2022-10-28T02:52:30;0.63;;;0.45;;
59984;SDS011;45843;47.532;18.660;2022-10-28T02:54:57;0.30;;;0.30;;
59984;SDS011;45843;47.532;18.660;2022-10-28T02:57:29;0.63;;;0.63;;
59984;SDS011;45843;47.532;18.660;2022-10-28T03:00:00;0.90;;;0.60;;
59984;SDS011;45843;47.532;18.660;2022-10-28T03:02:27;0.73;;;0.40;;
59984;SDS011;45843;47.532;18.660;2022-10-28T03:04:53;0.20;;;0.20;;
59984;SDS011;45843;47.532;18.660;2022-10-28T03:07:20;0.75;;;0.50;;
59984;SDS011;45843;47.532;18.660;2022-10-28T03:09:46;1.17;;;0.75;;
59984;SDS011;45843;47.532;18.660;2022-10-28T03:12:13;1.67;;;0.95;;
59984;SDS011;45843;47.532;18.660;2022-10-28T03:14:39;1.35;;;0.90;;
59984;SDS011;45843;47.532;18.660;2022-10-28T03:17:06;0.50;;;0.50;;
59984;SDS011;45843;47.532;18.660;2022-10-28T03:19:33;0.30;;;0.30;;
59984;SDS011;45843;47.532;18.660;2022-10-28T03:21:59;0.40;;;0.40;;
59984;SDS011;45843;47.532;18.660;2022-10-28T03:24:26;1.00;;;0.70;;
59984;SDS011;45843;47.532;18.660;2022-10-28T03:26:52;1.58;;;0.95;;
59984;SDS011;45843;47.532;18.660;2022-10-28T03:29:18;1.95;;;1.00;;
59984;SDS011;45843;47.532;18.660;2022-10-28T03:31:45;0.20;;;0.20;;
59984;SDS011;45843;47.532;18.660;2022-10-28T03:34:12;0.63;;;0.63;;
59984;SDS011;45843;47.532;18.660;2022-10-28T03:36:38;1.90;;;1.00;;
59984;SDS011;45843;47.532;18.660;2022-10-28T03:39:04;0.95;;;0.77;;
59984;SDS011;45843;47.532;18.660;2022-10-28T03:41:31;0.45;;;0.40;;
59984;SDS011;45843;47.532;18.660;2022-10-28T03:43:57;0.68;;;0.60;;
59984;SDS011;45843;47.532;18.660;2022-10-28T03:46:24;0.38;;;0.38;;
59984;SDS011;45843;47.532;18.660;2022-10-28T03:48:50;0.57;;;0.55;;
59984;SDS011;45843;47.532;18.660;2022-10-28T03:51:16;0.88;;;0.65;;
59984;SDS011;45843;47.532;18.660;2022-10-28T03:53:43;0.77;;;0.68;;
59984;SDS011;45843;47.532;18.660;2022-10-28T03:56:09;1.35;;;0.77;;
59984;SDS011;45843;47.532;18.660;2022-10-28T03:58:36;1.33;;;0.93;;
59984;SDS011;45843;47.532;18.660;2022-10-28T04:01:02;0.38;;;0.32;;
59984;SDS011;45843;47.532;18.660;2022-10-28T04:03:29;0.85;;;0.60;;
59984;SDS011;45843;47.532;18.660;2022-10-28T04:05:55;2.45;;;1.40;;
59984;SDS011;45843;47.532;18.660;2022-10-28T04:08:22;0.98;;;0.75;;
59984;SDS011;45843;47.532;18.660;2022-10-28T04:10:48;0.90;;;0.80;;
59984;SDS011;45843;47.532;18.660;2022-10-28T04:13:15;0.63;;;0.63;;
59984;SDS011;45843;47.532;18.660;2022-10-28T04:15:42;2.15;;;1.00;;
59984;SDS011;45843;47.532;18.660;2022-10-28T04:18:08;0.30;;;0.30;;
59984;SDS011;45843;47.532;18.660;2022-10-28T04:20:35;0.60;;;0.60;;
59984;SDS011;45843;47.532;18.660;2022-10-28T04:23:02;0.40;;;0.40;;
59984;SDS011;45843;47.532;18.660;2022-10-28T04:25:28;0.68;;;0.43;;
59984;SDS011;45843;47.532;18.660;2022-10-28T04:27:54;0.82;;;0.65;;
59984;SDS011;45843;47.532;18.660;2022-10-28T04:30:21;0.88;;;0.57;;
59984;SDS011;45843;47.532;18.660;2022-10-28T04:32:47;0.60;;;0.60;;
59984;SDS011;45843;47.532;18.660;2022-10-28T04:35:14;0.52;;;0.43;;
59984;SDS011;45843;47.532;18.660;2022-10-28T04:37:40;0.50;;;0.50;;
59984;SDS011;45843;47.532;18.660;2022-10-28T04:40:07;0.30;;;0.30;;
59984;SDS011;45843;47.532;18.660;2022-10-28T04:42:33;0.40;;;0.40;;
59984;SDS011;45843;47.532;18.660;2022-10-28T04:45:00;0.25;;;0.20;;
59984;SDS011;45843;47.532;18.660;2022-10-28T04:47:26;0.22;;;0.22;;
59984;SDS011;45843;47.532;18.660;2022-10-28T04:49:53;0.40;;;0.40;;
59984;SDS011;45843;47.532;18.660;2022-10-28T04:52:19;0.60;;;0.32;;
59984;SDS011;45843;47.532;18.660;2022-10-28T04:54:45;0.47;;;0.35;;
59984;SDS011;45843;47.532;18.660;2022-10-28T04:57:12;0.95;;;0.80;;
59984;SDS011;45843;47.532;18.660;2022-10-28T04:59:38;0.52;;;0.52;;
59984;SDS011;45843;47.532;18.660;2022-10-28T05:02:05;1.17;;;0.80;;
59984;SDS011;45843;47.532;18.660;2022-10-28T05:04:31;1.27;;;0.77;;
59984;SDS011;45843;47.532;18.660;2022-10-28T05:06:57;0.10;;;0.10;;
59984;SDS011;45843;47.532;18.660;2022-10-28T05:09:24;0.20;;;0.20;;
59984;SDS011;45843;47.532;18.660;2022-10-28T05:11:50;0.10;;;0.10;;
59984;SDS011;45843;47.532;18.660;2022-10-28T05:14:16;0.80;;;0.63;;
59984;SDS011;45843;47.532;18.660;2022-10-28T05:16:43;1.38;;;0.90;;
59984;SDS011;45843;47.532;18.660;2022-10-28T05:19:09;0.90;;;0.70;;
59984;SDS011;45843;47.532;18.660;2022-10-28T05:21:36;0.32;;;0.32;;
59984;SDS011;45843;47.532;18.660;2022-10-28T05:24:02;0.38;;;0.20;;
59984;SDS011;45843;47.532;18.660;2022-10-28T05:26:29;1.08;;;0.60;;
59984;SDS011;45843;47.532;18.660;2022-10-28T05:28:55;0.35;;;0.22;;
59984;SDS011;45843;47.532;18.660;2022-10-28T05:31:21;1.77;;;0.95;;
59984;SDS011;45843;47.532;18.660;2022-10-28T05:33:48;0.75;;;0.60;;
59984;SDS011;45843;47.532;18.660;2022-10-28T05:36:14;0.40;;;0.40;;
59984;SDS011;45843;47.532;18.660;2022-10-28T05:38:41;0.30;;;0.30;;
59984;SDS011;45843;47.532;18.660;2022-10-28T05:41:09;0.40;;;0.40;;
59984;SDS011;45843;47.532;18.660;2022-10-28T05:43:36;0.85;;;0.60;;
59984;SDS011;45843;47.532;18.660;2022-10-28T05:46:02;0.30;;;0.30;;
59984;SDS011;45843;47.532;18.660;2022-10-28T05:48:29;0.68;;;0.30;;
59984;SDS011;45843;47.532;18.660;2022-10-28T05:50:55;0.30;;;0.30;;
59984;SDS011;45843;47.532;18.660;2022-10-28T05:53:22;0.15;;;0.15;;
59984;SDS011;45843;47.532;18.660;2022-10-28T05:55:48;0.10;;;0.10;;
59984;SDS011;45843;47.532;18.660;2022-10-28T05:58:15;0.35;;;0.35;;
59984;SDS011;45843;47.532;18.660;2022-10-28T06:00:41;0.30;;;0.30;;
59984;SDS011;45843;47.532;18.660;2022-10-28T06:03:09;0.40;;;0.40;;
59984;SDS011;45843;47.532;18.660;2022-10-28T06:05:37;0.10;;;0.10;;
59984;SDS011;45843;47.532;18.660;2022-10-28T06:08:04;0.80;;;0.50;;
59984;SDS011;45843;47.532;18.660;2022-10-28T06:10:30;0.70;;;0.70;;
59984;SDS011;45843;47.532;18.660;2022-10-28T06:12:57;0.25;;;0.25;;
59984;SDS011;45843;47.532;18.660;2022-10-28T06:15:23;0.30;;;0.30;;
59984;SDS011;45843;47.532;18.660;2022-10-28T06:18:30;0.10;;;0.10;;
59984;SDS011;45843;47.532;18.660;2022-10-28T06:21:36;0.40;;;0.40;;
59984;SDS011;45843;47.532;18.660;2022-10-28T06:24:42;0.43;;;0.40;;
59984;SDS011;45843;47.532;18.660;2022-10-28T06:27:09;0.77;;;0.57;;
59984;SDS011;45843;47.532;18.660;2022-10-28T06:29:35;0.20;;;0.20;;
59984;SDS011;45843;47.532;18.660;2022-10-28T06:32:01;0.13;;;0.13;;
59984;SDS011;45843;47.532;18.660;2022-10-28T06:34:28;0.40;;;0.20;;
59984;SDS011;45843;47.532;18.660;2022-10-28T06:36:54;0.10;;;0.05;;
59984;SDS011;45843;47.532;18.660;2022-10-28T06:39:20;0.00;;;0.00;;
59984;SDS011;45843;47.532;18.660;2022-10-28T06:41:47;0.55;;;0.43;;
59984;SDS011;45843;47.532;18.660;2022-10-28T06:44:13;0.20;;;0.20;;
59984;SDS011;45843;47.532;18.660;2022-10-28T06:46:40;0.20;;;0.20;;
59984;SDS011;45843;47.532;18.660;2022-10-28T06:49:06;0.10;;;0.10;;
59984;SDS011;45843;47.532;18.660;2022-10-28T06:51:33;0.13;;;0.10;;
59984;SDS011;45843;47.532;18.660;2022-10-28T06:53:59;0.00;;;0.00;;
59984;SDS011;45843;47.532;18.660;2022-10-28T06:56:26;0.40;;;0.30;;
59984;SDS011;45843;47.532;18.660;2022-10-28T06:58:53;0.20;;;0.15;;
59984;SDS011;45843;47.532;18.660;2022-10-28T07:01:20;0.47;;;0.32;;
59984;SDS011;45843;47.532;18.660;2022-10-28T07:03:46;0.10;;;0.10;;
59984;SDS011;45843;47.532;18.660;2022-10-28T07:06:14;0.10;;;0.10;;
59984;SDS011;45843;47.532;18.660;2022-10-28T07:08:40;0.00;;;0.00;;
59984;SDS011;45843;47.532;18.660;2022-10-28T07:11:07;0.35;;;0.28;;
59984;SDS011;45843;47.532;18.660;2022-10-28T07:13:33;0.10;;;0.10;;
59984;SDS011;45843;47.532;18.660;2022-10-28T07:16:00;0.28;;;0.20;;
59984;SDS011;45843;47.532;18.660;2022-10-28T07:18:27;0.20;;;0.20;;
59984;SDS011;45843;47.532;18.660;2022-10-28T07:20:56;1.13;;;0.57;;
59984;SDS011;45843;47.532;18.660;2022-10-28T07:23:23;0.20;;;0.20;;
59984;SDS011;45843;47.532;18.660;2022-10-28T07:25:55;0.00;;;0.00;;
59984;SDS011;45843;47.532;18.660;2022-10-28T07:28:22;0.10;;;0.10;;
59984;SDS011;45843;47.532;18.660;2022-10-28T07:30:49;0.10;;;0.10;;
59984;SDS011;45843;47.532;18.660;2022-10-28T07:33:15;0.10;;;0.10;;
59984;SDS011;45843;47.532;18.660;2022-10-28T07:35:42;0.45;;;0.30;;
59984;SDS011;45843;47.532;18.660;2022-10-28T07:38:09;0.17;;;0.17;;
59984;SDS011;45843;47.532;18.660;2022-10-28T07:40:35;0.20;;;0.20;;
59984;SDS011;45843;47.532;18.660;2022-10-28T07:43:01;0.10;;;0.10;;
59984;SDS011;45843;47.532;18.660;2022-10-28T07:45:28;0.10;;;0.10;;
59984;SDS011;45843;47.532;18.660;2022-10-28T07:47:54;0.15;;;0.15;;
59984;SDS011;45843;47.532;18.660;2022-10-28T07:50:20;0.00;;;0.00;;
59984;SDS011;45843;47.532;18.660;2022-10-28T07:52:47;0.00;;;0.00;;
59984;SDS011;45843;47.532;18.660;2022-10-28T07:55:13;0.00;;;0.00;;
59984;SDS011;45843;47.532;18.660;2022-10-28T07:57:40;0.00;;;0.00;;
59984;SDS011;45843;47.532;18.660;2022-10-28T08:00:06;0.00;;;0.00;;
59984;SDS011;45843;47.532;18.660;2022-10-28T08:02:33;0.10;;;0.10;;
59984;SDS011;45843;47.532;18.660;2022-10-28T08:04:59;0.10;;;0.10;;
59984;SDS011;45843;47.532;18.660;2022-10-28T08:07:26;0.10;;;0.10;;
59984;SDS011;45843;47.532;18.660;2022-10-28T08:09:53;0.20;;;0.15;;
59984;SDS011;45843;47.532;18.660;2022-10-28T08:12:57;0.05;;;0.03;;
59984;SDS011;45843;47.532;18.660;2022-10-28T08:16:04;0.00;;;0.00;;
59984;SDS011;45843;47.532;18.660;2022-10-28T08:18:48;0.10;;;0.10;;
59984;SDS011;45843;47.532;18.660;2022-10-28T08:21:14;0.10;;;0.10;;
59984;SDS011;45843;47.532;18.660;2022-10-28T08:23:41;0.10;;;0.10;;
59984;SDS011;45843;47.532;18.660;2022-10-28T08:26:11;0.03;;;0.03;;
59984;SDS011;45843;47.532;18.660;2022-10-28T08:28:38;0.20;;;0.20;;
59984;SDS011;45843;47.532;18.660;2022-10-28T08:31:05;0.10;;;0.10;;
59984;SDS011;45843;47.532;18.660;2022-10-28T08:33:39;0.10;;;0.10;;
59984;SDS011;45843;47.532;18.660;2022-10-28T08:36:07;0.00;;;0.00;;
59984;SDS011;45843;47.532;18.660;2022-10-28T08:38:34;0.10;;;0.10;;
59984;SDS011;45843;47.532;18.660;2022-10-28T08:41:07;0.10;;;0.10;;
59984;SDS011;45843;47.532;18.660;2022-10-28T08:46:35;0.10;;;0.10;;
59984;SDS011;45843;47.532;18.660;2022-10-28T08:49:07;0.10;;;0.10;;
59984;SDS011;45843;47.532;18.660;2022-10-28T08:54:12;0.00;;;0.00;;
59984;SDS011;45843;47.532;18.660;2022-10-28T08:56:40;0.20;;;0.20;;
59984;SDS011;45843;47.532;18.660;2022-10-28T08:59:12;0.17;;;0.17;;
59984;SDS011;45843;47.532;18.660;2022-10-28T09:04:12;0.03;;;0.03;;
59984;SDS011;45843;47.532;18.660;2022-10-28T09:06:41;0.10;;;0.10;;
59984;SDS011;45843;47.532;18.660;2022-10-28T09:09:10;0.10;;;0.10;;
59984;SDS011;45843;47.532;18.660;2022-10-28T09:11:52;0.00;;;0.00;;
59984;SDS011;45843;47.532;18.660;2022-10-28T09:14:33;0.10;;;0.10;;
59984;SDS011;45843;47.532;18.660;2022-10-28T09:22:11;0.10;;;0.10;;
59984;SDS011;45843;47.532;18.660;2022-10-28T09:25:24;0.00;;;0.00;;
59984;SDS011;45843;47.532;18.660;2022-10-28T09:35:27;0.00;;;0.00;;
59984;SDS011;45843;47.532;18.660;2022-10-28T09:40:38;0.00;;;0.00;;
59984;SDS011;45843;47.532;18.660;2022-10-28T09:43:19;0.00;;;0.00;;
59984;SDS011;45843;47.532;18.660;2022-10-28T09:45:48;0.00;;;0.00;;
59984;SDS011;45843;47.532;18.660;2022-10-28T09:48:20;0.00;;;0.00;;
59984;SDS011;45843;47.532;18.660;2022-10-28T09:50:48;0.10;;;0.10;;
59984;SDS011;45843;47.532;18.660;2022-10-28T09:53:25;0.00;;;0.00;;
59984;SDS011;45843;47.532;18.660;2022-10-28T09:55:54;0.10;;;0.10;;
59984;SDS011;45843;47.532;18.660;2022-10-28T09:58:21;0.10;;;0.10;;
59984;SDS011;45843;47.532;18.660;2022-10-28T10:00:47;0.10;;;0.10;;
59984;SDS011;45843;47.532;18.660;2022-10-28T10:03:14;0.00;;;0.00;;
59984;SDS011;45843;47.532;18.660;2022-10-28T10:05:42;0.10;;;0.10;;
59984;SDS011;45843;47.532;18.660;2022-10-28T10:08:11;0.10;;;0.10;;
59984;SDS011;45843;47.532;18.660;2022-10-28T10:10:49;0.03;;;0.03;;
59984;SDS011;45843;47.532;18.660;2022-10-28T10:13:21;0.00;;;0.00;;
59984;SDS011;45843;47.532;18.660;2022-10-28T10:15:51;0.08;;;0.08;;
59984;SDS011;45843;47.532;18.660;2022-10-28T10:18:23;0.00;;;0.00;;
59984;SDS011;45843;47.532;18.660;2022-10-28T10:20:52;0.10;;;0.10;;
59984;SDS011;45843;47.532;18.660;2022-10-28T10:23:26;0.10;;;0.10;;
59984;SDS011;45843;47.532;18.660;2022-10-28T10:25:53;0.10;;;0.10;;
59984;SDS011;45843;47.532;18.660;2022-10-28T10:28:20;0.00;;;0.00;;
59984;SDS011;45843;47.532;18.660;2022-10-28T10:30:51;0.00;;;0.00;;
59984;SDS011;45843;47.532;18.660;2022-10-28T10:33:19;0.00;;;0.00;;
59984;SDS011;45843;47.532;18.660;2022-10-28T10:35:51;0.00;;;0.00;;
59984;SDS011;45843;47.532;18.660;2022-10-28T10:38:18;0.10;;;0.10;;
59984;SDS011;45843;47.532;18.660;2022-10-28T10:40:48;0.10;;;0.10;;
59984;SDS011;45843;47.532;18.660;2022-10-28T10:46:01;0.00;;;0.00;;
59984;SDS011;45843;47.532;18.660;2022-10-28T10:48:28;0.00;;;0.00;;
59984;SDS011;45843;47.532;18.660;2022-10-28T10:50:56;0.20;;;0.10;;
59984;SDS011;45843;47.532;18.660;2022-10-28T10:53:26;0.10;;;0.10;;
59984;SDS011;45843;47.532;18.660;2022-10-28T10:55:55;0.03;;;0.03;;
59984;SDS011;45843;47.532;18.660;2022-10-28T10:58:23;0.00;;;0.00;;
59984;SDS011;45843;47.532;18.660;2022-10-28T11:00:50;0.10;;;0.10;;
59984;SDS011;45843;47.532;18.660;2022-10-28T11:03:22;0.10;;;0.10;;
59984;SDS011;45843;47.532;18.660;2022-10-28T11:05:51;0.10;;;0.10;;
59984;SDS011;45843;47.532;18.660;2022-10-28T11:08:52;0.10;;;0.10;;
59984;SDS011;45843;47.532;18.660;2022-10-28T11:11:53;0.00;;;0.00;;
59984;SDS011;45843;47.532;18.660;2022-10-28T11:14:01;0.10;;;0.10;;
59984;SDS011;45843;47.532;18.660;2022-10-28T11:16:27;0.10;;;0.10;;
59984;SDS011;45843;47.532;18.660;2022-10-28T11:18:54;0.00;;;0.00;;
59984;SDS011;45843;47.532;18.660;2022-10-28T11:21:26;0.00;;;0.00;;
59984;SDS011;45843;47.532;18.660;2022-10-28T11:24:02;0.00;;;0.00;;
59984;SDS011;45843;47.532;18.660;2022-10-28T11:26:33;0.00;;;0.00;;
59984;SDS011;45843;47.532;18.660;2022-10-28T11:29:14;0.10;;;0.10;;
59984;SDS011;45843;47.532;18.660;2022-10-28T11:31:45;0.00;;;0.00;;
59984;SDS011;45843;47.532;18.660;2022-10-28T11:39:58;0.10;;;0.10;;
59984;SDS011;45843;47.532;18.660;2022-10-28T11:43:03;0.00;;;0.00;;
59984;SDS011;45843;47.532;18.660;2022-10-28T11:56:02;0.00;;;0.00;;
59984;SDS011;45843;47.532;18.660;2022-10-28T12:01:30;0.00;;;0.00;;
59984;SDS011;45843;47.532;18.660;2022-10-28T12:09:16;0.10;;;0.10;;
59984;SDS011;45843;47.532;18.660;2022-10-28T12:19:26;0.03;;;0.03;;
59984;SDS011;45843;47.532;18.660;2022-10-28T12:21:58;0.00;;;0.00;;
59984;SDS011;45843;47.532;18.660;2022-10-28T12:26:55;0.00;;;0.00;;
59984;SDS011;45843;47.532;18.660;2022-10-28T12:29:25;0.00;;;0.00;;
59984;SDS011;45843;47.532;18.660;2022-10-28T12:31:54;0.00;;;0.00;;
59984;SDS011;45843;47.532;18.660;2022-10-28T12:35:06;0.10;;;0.10;;
59984;SDS011;45843;47.532;18.660;2022-10-28T12:38:13;0.00;;;0.00;;
59984;SDS011;45843;47.532;18.660;2022-10-28T12:41:19;0.00;;;0.00;;
59984;SDS011;45843;47.532;18.660;2022-10-28T12:44:23;0.00;;;0.00;;
59984;SDS011;45843;47.532;18.660;2022-10-28T12:47:34;0.10;;;0.10;;
59984;SDS011;45843;47.532;18.660;2022-10-28T12:50:37;0.10;;;0.10;;
59984;SDS011;45843;47.532;18.660;2022-10-28T12:53:48;0.03;;;0.03;;
59984;SDS011;45843;47.532;18.660;2022-10-28T12:56:53;0.10;;;0.10;;
59984;SDS011;45843;47.532;18.660;2022-10-28T13:03:04;0.00;;;0.00;;
59984;SDS011;45843;47.532;18.660;2022-10-28T13:20:49;0.00;;;0.00;;
59984;SDS011;45843;47.532;18.660;2022-10-28T13:23:55;0.00;;;0.00;;
59984;SDS011;45843;47.532;18.660;2022-10-28T13:27:01;0.00;;;0.00;;
59984;SDS011;45843;47.532;18.660;2022-10-28T13:29:28;0.00;;;0.00;;
59984;SDS011;45843;47.532;18.660;2022-10-28T13:31:56;0.05;;;0.05;;
59984;SDS011;45843;47.532;18.660;2022-10-28T13:34:33;0.00;;;0.00;;
59984;SDS011;45843;47.532;18.660;2022-10-28T13:37:00;0.00;;;0.00;;
59984;SDS011;45843;47.532;18.660;2022-10-28T13:44:46;0.00;;;0.00;;
59984;SDS011;45843;47.532;18.660;2022-10-28T13:52:27;0.00;;;0.00;;
59984;SDS011;45843;47.532;18.660;2022-10-28T13:54:54;0.00;;;0.00;;
59984;SDS011;45843;47.532;18.660;2022-10-28T13:57:35;0.03;;;0.03;;
59984;SDS011;45843;47.532;18.660;2022-10-28T14:07:29;0.10;;;0.10;;
59984;SDS011;45843;47.532;18.660;2022-10-28T14:09:57;0.10;;;0.10;;
59984;SDS011;45843;47.532;18.660;2022-10-28T14:12:31;0.00;;;0.00;;
59984;SDS011;45843;47.532;18.660;2022-10-28T14:15:05;0.00;;;0.00;;
59984;SDS011;45843;47.532;18.660;2022-10-28T14:18:34;0.00;;;0.00;;
59984;SDS011;45843;47.532;18.660;2022-10-28T14:22:55;0.08;;;0.08;;
59984;SDS011;45843;47.532;18.660;2022-10-28T14:36:14;0.10;;;0.10;;
59984;SDS011;45843;47.532;18.660;2022-10-28T14:47:06;0.00;;;0.00;;
59984;SDS011;45843;47.532;18.660;2022-10-28T14:49:35;0.10;;;0.10;;
59984;SDS011;45843;47.532;18.660;2022-10-28T14:52:06;0.10;;;0.10;;
59984;SDS011;45843;47.532;18.660;2022-10-28T14:54:35;0.10;;;0.10;;
59984;SDS011;45843;47.532;18.660;2022-10-28T14:57:03;0.00;;;0.00;;
59984;SDS011;45843;47.532;18.660;2022-10-28T14:59:36;0.00;;;0.00;;
59984;SDS011;45843;47.532;18.660;2022-10-28T15:02:17;0.10;;;0.10;;
59984;SDS011;45843;47.532;18.660;2022-10-28T15:04:46;0.20;;;0.20;;
59984;SDS011;45843;47.532;18.660;2022-10-28T15:07:52;0.10;;;0.10;;
59984;SDS011;45843;47.532;18.660;2022-10-28T15:10:58;0.10;;;0.10;;
59984;SDS011;45843;47.532;18.660;2022-10-28T15:14:12;0.13;;;0.13;;
59984;SDS011;45843;47.532;18.660;2022-10-28T15:17:24;0.10;;;0.10;;
59984;SDS011;45843;47.532;18.660;2022-10-28T15:20:30;0.20;;;0.20;;
59984;SDS011;45843;47.532;18.660;2022-10-28T15:23:35;0.20;;;0.20;;
59984;SDS011;45843;47.532;18.660;2022-10-28T15:26:41;0.05;;;0.05;;
59984;SDS011;45843;47.532;18.660;2022-10-28T15:29:08;0.10;;;0.10;;
59984;SDS011;45843;47.532;18.660;2022-10-28T15:32:01;0.10;;;0.10;;
59984;SDS011;45843;47.532;18.660;2022-10-28T15:34:21;0.15;;;0.15;;
59984;SDS011;45843;47.532;18.660;2022-10-28T15:36:47;0.25;;;0.20;;
59984;SDS011;45843;47.532;18.660;2022-10-28T15:39:14;0.10;;;0.10;;
59984;SDS011;45843;47.532;18.660;2022-10-28T15:41:45;0.10;;;0.10;;
59984;SDS011;45843;47.532;18.660;2022-10-28T15:46:59;0.17;;;0.17;;
59984;SDS011;45843;47.532;18.660;2022-10-28T15:49:29;0.20;;;0.13;;
59984;SDS011;45843;47.532;18.660;2022-10-28T15:52:18;0.00;;;0.00;;
59984;SDS011;45843;47.532;18.660;2022-10-28T15:54:54;0.08;;;0.08;;
59984;SDS011;45843;47.532;18.660;2022-10-28T15:57:25;0.00;;;0.00;;
59984;SDS011;45843;47.532;18.660;2022-10-28T16:00:26;0.10;;;0.10;;
59984;SDS011;45843;47.532;18.660;2022-10-28T16:08:04;0.10;;;0.10;;
59984;SDS011;45843;47.532;18.660;2022-10-28T16:10:35;0.10;;;0.10;;
59984;SDS011;45843;47.532;18.660;2022-10-28T16:13:02;0.08;;;0.08;;
59984;SDS011;45843;47.532;18.660;2022-10-28T16:15:29;0.00;;;0.00;;
59984;SDS011;45843;47.532;18.660;2022-10-28T16:17:56;0.05;;;0.05;;
59984;SDS011;45843;47.532;18.660;2022-10-28T16:20:25;0.17;;;0.17;;
59984;SDS011;45843;47.532;18.660;2022-10-28T16:22:52;0.13;;;0.13;;
59984;SDS011;45843;47.532;18.660;2022-10-28T16:25:19;0.10;;;0.10;;
59984;SDS011;45843;47.532;18.660;2022-10-28T16:27:46;0.10;;;0.10;;
59984;SDS011;45843;47.532;18.660;2022-10-28T16:30:12;0.20;;;0.20;;
59984;SDS011;45843;47.532;18.660;2022-10-28T16:32:46;0.00;;;0.00;;
59984;SDS011;45843;47.532;18.660;2022-10-28T16:35:14;0.10;;;0.10;;
59984;SDS011;45843;47.532;18.660;2022-10-28T16:37:42;0.03;;;0.03;;
59984;SDS011;45843;47.532;18.660;2022-10-28T16:40:08;0.00;;;0.00;;
59984;SDS011;45843;47.532;18.660;2022-10-28T16:42:35;0.13;;;0.13;;
59984;SDS011;45843;47.532;18.660;2022-10-28T16:45:03;0.10;;;0.10;;
59984;SDS011;45843;47.532;18.660;2022-10-28T16:47:29;0.08;;;0.08;;
59984;SDS011;45843;47.532;18.660;2022-10-28T16:49:55;0.10;;;0.10;;
59984;SDS011;45843;47.532;18.660;2022-10-28T16:52:23;0.20;;;0.20;;
59984;SDS011;45843;47.532;18.660;2022-10-28T16:54:49;0.10;;;0.10;;
59984;SDS011;45843;47.532;18.660;2022-10-28T16:57:16;0.00;;;0.00;;
59984;SDS011;45843;47.532;18.660;2022-10-28T16:59:43;0.10;;;0.10;;
59984;SDS011;45843;47.532;18.660;2022-10-28T17:02:14;0.00;;;0.00;;
59984;SDS011;45843;47.532;18.660;2022-10-28T17:04:42;0.10;;;0.10;;
59984;SDS011;45843;47.532;18.660;2022-10-28T17:07:08;0.20;;;0.20;;
59984;SDS011;45843;47.532;18.660;2022-10-28T17:09:39;0.10;;;0.10;;
59984;SDS011;45843;47.532;18.660;2022-10-28T17:12:07;0.10;;;0.10;;
59984;SDS011;45843;47.532;18.660;2022-10-28T17:14:33;0.17;;;0.17;;
59984;SDS011;45843;47.532;18.660;2022-10-28T17:16:59;0.00;;;0.00;;
59984;SDS011;45843;47.532;18.660;2022-10-28T17:19:26;0.10;;;0.10;;
59984;SDS011;45843;47.532;18.660;2022-10-28T17:21:52;0.10;;;0.10;;
59984;SDS011;45843;47.532;18.660;2022-10-28T17:24:18;0.10;;;0.10;;
59984;SDS011;45843;47.532;18.660;2022-10-28T17:26:46;0.00;;;0.00;;
59984;SDS011;45843;47.532;18.660;2022-10-28T17:29:13;0.10;;;0.10;;
59984;SDS011;45843;47.532;18.660;2022-10-28T17:31:39;0.10;;;0.10;;
59984;SDS011;45843;47.532;18.660;2022-10-28T17:34:06;0.10;;;0.10;;
59984;SDS011;45843;47.532;18.660;2022-10-28T17:36:32;0.20;;;0.20;;
59984;SDS011;45843;47.532;18.660;2022-10-28T17:38:59;0.10;;;0.10;;
59984;SDS011;45843;47.532;18.660;2022-10-28T17:41:25;0.15;;;0.15;;